Time;durP1;ratioP1;P1;durP2;ratioP2;P2;SDS_P1;SDS_P2;PMS_P1;PMS_P2;Temp;Humidity;BMP_temperature;BMP_pressure;BME280_temperature;BME280_humidity;BME280_pressure;Samples;Min_cycle;Max_cycle;Signal;HPM_P1;HPM_P2
2022/12/31 00:01:12;;;;;;;1.35;0.95;;;;;;;;;;5098931;28;20043;-81
2022/12/31 00:03:38;;;;;;;2.40;1.13;;;;;;;;;;5115866;28;20096;-81
2022/12/31 00:06:30;;;;;;;2.10;1.00;;;;;;;;;;5117416;28;20027;-81
2022/12/31 00:08:56;;;;;;;2.15;1.10;;;;;;;;;;5115829;28;20027;-81
2022/12/31 00:11:23;;;;;;;1.27;1.00;;;;;;;;;;5115751;28;20466;-81
2022/12/31 00:13:48;;;;;;;3.60;1.20;;;;;;;;;;5115737;28;20114;-81
2022/12/31 00:16:19;;;;;;;1.25;1.00;;;;;;;;;;5115753;28;20062;-81
2022/12/31 00:18:47;;;;;;;1.40;0.90;;;;;;;;;;5115606;28;20474;-80
2022/12/31 00:21:13;;;;;;;1.00;0.80;;;;;;;;;;5115476;28;20035;-80
2022/12/31 00:23:38;;;;;;;3.33;0.98;;;;;;;;;;5115350;28;20028;-80
2022/12/31 00:26:06;;;;;;;2.30;1.00;;;;;;;;;;5115827;28;20026;-80
2022/12/31 00:28:32;;;;;;;2.33;1.05;;;;;;;;;;5115729;28;20123;-80
2022/12/31 00:31:07;;;;;;;0.70;0.70;;;;;;;;;;5115630;28;20085;-81
2022/12/31 00:33:33;;;;;;;0.90;0.80;;;;;;;;;;5098264;28;20032;-81
2022/12/31 00:36:06;;;;;;;0.85;0.70;;;;;;;;;;5116940;28;20381;-80
2022/12/31 00:38:31;;;;;;;1.20;0.80;;;;;;;;;;5115267;28;20024;-81
2022/12/31 00:40:57;;;;;;;0.85;0.65;;;;;;;;;;5116001;28;20382;-81
2022/12/31 00:43:22;;;;;;;0.70;0.65;;;;;;;;;;5118197;28;20517;-81
2022/12/31 00:45:47;;;;;;;1.40;0.70;;;;;;;;;;5118299;28;20105;-81
2022/12/31 00:48:13;;;;;;;0.73;0.70;;;;;;;;;;5117769;28;20035;-81
2022/12/31 00:50:38;;;;;;;1.20;0.75;;;;;;;;;;5115365;28;20482;-81
2022/12/31 00:53:03;;;;;;;1.75;1.05;;;;;;;;;;5116301;28;20117;-81
2022/12/31 00:55:29;;;;;;;3.22;1.05;;;;;;;;;;5115285;28;20027;-81
2022/12/31 00:57:55;;;;;;;0.90;0.75;;;;;;;;;;5115315;28;20051;-82
2022/12/31 01:00:20;;;;;;;0.68;0.68;;;;;;;;;;5115907;28;20031;-81
2022/12/31 01:02:46;;;;;;;1.05;0.70;;;;;;;;;;5115085;28;20035;-81
2022/12/31 01:05:11;;;;;;;5.38;0.88;;;;;;;;;;5097559;28;20111;-81
2022/12/31 01:07:37;;;;;;;1.85;0.63;;;;;;;;;;5114647;28;20355;-81
2022/12/31 01:10:03;;;;;;;3.55;0.95;;;;;;;;;;5114916;28;20028;-81
2022/12/31 01:12:28;;;;;;;3.15;0.70;;;;;;;;;;5114603;28;20486;-81
2022/12/31 01:14:54;;;;;;;1.20;0.90;;;;;;;;;;5115996;28;20054;-81
2022/12/31 01:17:19;;;;;;;1.13;0.93;;;;;;;;;;5115805;28;20470;-81
2022/12/31 01:19:44;;;;;;;3.30;0.77;;;;;;;;;;5115745;28;20034;-81
2022/12/31 01:22:10;;;;;;;0.60;0.60;;;;;;;;;;5115689;28;20419;-81
2022/12/31 01:24:35;;;;;;;1.77;0.90;;;;;;;;;;5114453;28;20031;-81
2022/12/31 01:27:00;;;;;;;1.70;0.95;;;;;;;;;;5115768;28;20031;-81
2022/12/31 01:29:26;;;;;;;0.60;0.60;;;;;;;;;;5114165;28;20027;-81
2022/12/31 01:31:51;;;;;;;0.55;0.52;;;;;;;;;;5114470;28;20165;-80
2022/12/31 01:34:17;;;;;;;10.75;0.75;;;;;;;;;;5115347;28;20031;-80
2022/12/31 01:36:42;;;;;;;1.80;0.60;;;;;;;;;;5114306;28;20035;-80
2022/12/31 01:39:09;;;;;;;0.60;0.60;;;;;;;;;;5114088;28;20512;-81
2022/12/31 01:41:41;;;;;;;1.90;0.90;;;;;;;;;;5114211;28;20024;-80
2022/12/31 01:44:09;;;;;;;1.02;0.50;;;;;;;;;;5096825;28;20429;-80
2022/12/31 01:46:38;;;;;;;1.05;0.77;;;;;;;;;;5115218;28;20081;-80
2022/12/31 01:49:30;;;;;;;1.13;0.70;;;;;;;;;;5115108;28;20051;-80
2022/12/31 01:52:16;;;;;;;0.60;0.60;;;;;;;;;;5114167;28;20084;-80
2022/12/31 01:54:44;;;;;;;0.40;0.40;;;;;;;;;;5113729;28;20023;-80
2022/12/31 01:57:10;;;;;;;1.38;0.90;;;;;;;;;;5096423;28;20100;-80
2022/12/31 01:59:36;;;;;;;0.73;0.52;;;;;;;;;;5079563;28;20034;-80
2022/12/31 02:02:02;;;;;;;1.40;0.70;;;;;;;;;;5113736;28;20035;-80
2022/12/31 02:04:28;;;;;;;0.85;0.60;;;;;;;;;;5113325;28;20032;-80
2022/12/31 02:07:00;;;;;;;1.50;0.60;;;;;;;;;;5114141;28;20031;-80
2022/12/31 02:09:25;;;;;;;0.60;0.60;;;;;;;;;;5113866;28;20023;-80
2022/12/31 02:11:50;;;;;;;0.82;0.82;;;;;;;;;;5095616;28;20385;-80
2022/12/31 02:14:22;;;;;;;1.77;0.80;;;;;;;;;;5114681;28;20035;-80
2022/12/31 02:17:18;;;;;;;2.45;0.70;;;;;;;;;;5113625;28;20023;-80
2022/12/31 02:19:54;;;;;;;0.50;0.50;;;;;;;;;;5115027;28;20034;-81
2022/12/31 02:22:41;;;;;;;2.38;0.82;;;;;;;;;;5113239;28;20032;-81
2022/12/31 02:25:15;;;;;;;0.68;0.65;;;;;;;;;;5114266;28;20080;-80
2022/12/31 02:28:11;;;;;;;3.22;0.70;;;;;;;;;;5114369;28;20034;-81
2022/12/31 02:30:38;;;;;;;0.55;0.50;;;;;;;;;;5096014;28;20106;-81
2022/12/31 02:33:21;;;;;;;6.68;0.80;;;;;;;;;;5113296;28;20578;-81
2022/12/31 02:35:50;;;;;;;1.30;0.68;;;;;;;;;;5113483;28;20039;-81
2022/12/31 02:38:39;;;;;;;1.20;0.75;;;;;;;;;;5112694;28;20035;-81
2022/12/31 02:41:05;;;;;;;1.00;0.60;;;;;;;;;;5113467;28;20501;-80
2022/12/31 02:43:30;;;;;;;0.60;0.60;;;;;;;;;;5113805;28;20031;-83
2022/12/31 02:46:24;;;;;;;0.70;0.52;;;;;;;;;;5114446;28;20084;-83
2022/12/31 02:49:11;;;;;;;0.82;0.60;;;;;;;;;;5113221;28;20118;-83
2022/12/31 02:51:49;;;;;;;0.40;0.40;;;;;;;;;;5114780;28;20055;-81
2022/12/31 02:54:20;;;;;;;1.83;0.65;;;;;;;;;;5113929;28;20019;-80
2022/12/31 02:57:03;;;;;;;1.65;0.65;;;;;;;;;;5113605;28;20032;-80
2022/12/31 03:02:22;;;;;;;1.13;0.70;;;;;;;;;;5112888;28;20078;-81
2022/12/31 03:04:53;;;;;;;0.57;0.52;;;;;;;;;;5114041;28;20042;-81
2022/12/31 03:07:33;;;;;;;0.60;0.60;;;;;;;;;;5112527;28;20099;-81
2022/12/31 03:10:00;;;;;;;1.15;0.80;;;;;;;;;;5095753;28;20019;-81
2022/12/31 03:12:46;;;;;;;1.35;0.80;;;;;;;;;;5112427;28;20502;-82
2022/12/31 03:15:21;;;;;;;0.95;0.70;;;;;;;;;;5112510;28;20027;-81
2022/12/31 03:17:50;;;;;;;1.10;0.95;;;;;;;;;;5113664;28;20114;-82
2022/12/31 03:23:00;;;;;;;;;;;;;;;;;;5114121;28;20116;-80
2022/12/31 03:25:34;;;;;;;1.43;0.60;;;;;;;;;;5113479;28;19919;-82
2022/12/31 03:28:06;;;;;;;3.05;0.77;;;;;;;;;;5112063;28;20276;-82
2022/12/31 03:30:33;;;;;;;0.82;0.68;;;;;;;;;;5112184;28;20016;-82
2022/12/31 03:32:58;;;;;;;0.82;0.55;;;;;;;;;;5112958;28;20031;-82
2022/12/31 03:35:25;;;;;;;0.98;0.82;;;;;;;;;;5112447;28;20076;-82
2022/12/31 03:37:51;;;;;;;1.55;1.00;;;;;;;;;;5112428;28;20024;-81
2022/12/31 03:40:18;;;;;;;0.98;0.70;;;;;;;;;;5112387;28;20034;-81
2022/12/31 03:42:43;;;;;;;1.15;0.98;;;;;;;;;;5095064;28;20036;-81
2022/12/31 03:45:10;;;;;;;1.55;0.80;;;;;;;;;;5113131;28;20039;-81
2022/12/31 03:47:35;;;;;;;2.55;0.73;;;;;;;;;;5111920;28;20020;-81
2022/12/31 03:50:01;;;;;;;1.60;0.80;;;;;;;;;;5113210;28;20080;-82
2022/12/31 03:52:27;;;;;;;1.73;0.68;;;;;;;;;;5112001;28;20034;-81
2022/12/31 03:54:52;;;;;;;1.50;0.77;;;;;;;;;;5112076;28;20027;-81
2022/12/31 03:57:17;;;;;;;3.13;0.68;;;;;;;;;;5112925;28;20130;-81
2022/12/31 03:59:43;;;;;;;1.85;0.60;;;;;;;;;;5111865;28;20123;-81
2022/12/31 04:02:08;;;;;;;1.27;0.75;;;;;;;;;;5113622;28;20036;-81
2022/12/31 04:04:33;;;;;;;0.75;0.47;;;;;;;;;;5113119;28;20028;-82
2022/12/31 04:06:59;;;;;;;1.08;0.50;;;;;;;;;;5111769;28;20198;-82
2022/12/31 04:09:24;;;;;;;0.85;0.50;;;;;;;;;;5111781;28;20462;-82
2022/12/31 04:11:50;;;;;;;1.25;0.70;;;;;;;;;;5111775;28;20039;-82
2022/12/31 04:14:16;;;;;;;1.60;0.60;;;;;;;;;;5113419;28;20073;-82
2022/12/31 04:16:42;;;;;;;1.88;1.05;;;;;;;;;;5111723;28;20023;-82
2022/12/31 04:19:07;;;;;;;0.80;0.50;;;;;;;;;;5111707;28;20114;-81
2022/12/31 04:21:32;;;;;;;1.33;0.68;;;;;;;;;;5113007;28;20481;-81
2022/12/31 04:23:58;;;;;;;0.52;0.50;;;;;;;;;;5111725;28;20073;-81
2022/12/31 04:26:23;;;;;;;0.95;0.90;;;;;;;;;;5113177;28;20053;-81
2022/12/31 04:28:48;;;;;;;1.05;0.57;;;;;;;;;;5113371;28;20027;-82
2022/12/31 04:31:14;;;;;;;1.52;0.80;;;;;;;;;;5112787;28;20043;-82
2022/12/31 04:33:39;;;;;;;1.15;0.50;;;;;;;;;;5112722;28;20100;-82
2022/12/31 04:36:06;;;;;;;0.60;0.52;;;;;;;;;;5116329;28;20377;-82
2022/12/31 04:38:33;;;;;;;1.58;0.70;;;;;;;;;;5116974;28;20038;-82
2022/12/31 04:41:16;;;;;;;1.33;0.55;;;;;;;;;;5116350;28;20054;-82
2022/12/31 04:43:43;;;;;;;0.73;0.60;;;;;;;;;;5100805;28;20028;-81
2022/12/31 04:46:09;;;;;;;0.55;0.50;;;;;;;;;;5116640;28;20032;-82
2022/12/31 04:48:34;;;;;;;1.27;0.55;;;;;;;;;;5116309;28;20434;-81
2022/12/31 04:51:00;;;;;;;0.43;0.40;;;;;;;;;;5115757;28;20039;-82
2022/12/31 04:53:25;;;;;;;1.88;0.65;;;;;;;;;;5116344;28;20028;-81
2022/12/31 04:55:51;;;;;;;2.33;0.50;;;;;;;;;;5115061;28;20024;-81
2022/12/31 04:58:17;;;;;;;1.10;0.60;;;;;;;;;;5114711;28;20138;-81
2022/12/31 05:00:44;;;;;;;0.30;0.30;;;;;;;;;;5115913;28;20024;-81
2022/12/31 05:03:10;;;;;;;1.65;0.82;;;;;;;;;;5116791;28;20058;-82
2022/12/31 05:05:41;;;;;;;0.77;0.77;;;;;;;;;;5116496;28;20063;-83
2022/12/31 05:08:07;;;;;;;1.23;0.63;;;;;;;;;;5098710;28;20028;-82
2022/12/31 05:10:32;;;;;;;0.68;0.60;;;;;;;;;;5116388;28;20027;-82
2022/12/31 05:12:58;;;;;;;1.13;0.50;;;;;;;;;;5116291;28;20034;-81
2022/12/31 05:15:23;;;;;;;0.35;0.30;;;;;;;;;;5116145;28;20020;-82
2022/12/31 05:17:48;;;;;;;0.73;0.60;;;;;;;;;;5116400;28;20421;-82
2022/12/31 05:20:14;;;;;;;0.95;0.70;;;;;;;;;;5114984;28;20108;-82
2022/12/31 05:22:39;;;;;;;0.65;0.50;;;;;;;;;;5116499;28;20055;-81
2022/12/31 05:25:05;;;;;;;0.47;0.47;;;;;;;;;;5114565;28;20027;-80
2022/12/31 05:27:30;;;;;;;0.60;0.50;;;;;;;;;;5116135;28;20528;-80
2022/12/31 05:29:56;;;;;;;1.85;0.60;;;;;;;;;;5115039;28;20054;-82
2022/12/31 05:32:21;;;;;;;1.20;0.60;;;;;;;;;;5116140;28;20168;-81
2022/12/31 05:34:46;;;;;;;2.17;0.47;;;;;;;;;;5097506;28;20035;-82
2022/12/31 05:37:12;;;;;;;0.35;0.35;;;;;;;;;;5115833;28;20031;-82
2022/12/31 05:39:37;;;;;;;0.35;0.35;;;;;;;;;;5114458;28;20034;-83
2022/12/31 05:42:03;;;;;;;0.25;0.25;;;;;;;;;;5097377;28;20118;-81
2022/12/31 05:44:28;;;;;;;0.30;0.30;;;;;;;;;;5115465;28;20031;-81
2022/12/31 05:46:53;;;;;;;0.73;0.55;;;;;;;;;;5114539;28;20480;-81
2022/12/31 05:49:19;;;;;;;2.83;0.47;;;;;;;;;;5114108;28;20077;-81
2022/12/31 05:51:44;;;;;;;0.40;0.40;;;;;;;;;;5115125;28;20035;-82
2022/12/31 05:54:10;;;;;;;0.93;0.60;;;;;;;;;;5114421;28;20039;-81
2022/12/31 05:56:35;;;;;;;0.40;0.40;;;;;;;;;;5113767;28;20031;-81
2022/12/31 05:59:00;;;;;;;0.50;0.35;;;;;;;;;;5113915;28;20521;-81
2022/12/31 06:01:26;;;;;;;0.80;0.57;;;;;;;;;;5113848;28;20432;-81
2022/12/31 06:03:51;;;;;;;0.88;0.52;;;;;;;;;;5114821;28;20088;-81
2022/12/31 06:06:16;;;;;;;0.80;0.40;;;;;;;;;;5115178;28;20031;-81
2022/12/31 06:08:42;;;;;;;1.08;0.40;;;;;;;;;;5113678;28;20038;-81
2022/12/31 06:11:07;;;;;;;0.40;0.40;;;;;;;;;;5115071;28;20595;-81
2022/12/31 06:13:32;;;;;;;0.30;0.30;;;;;;;;;;5113704;28;20027;-81
2022/12/31 06:16:04;;;;;;;0.40;0.40;;;;;;;;;;5113624;28;20367;-81
2022/12/31 06:18:29;;;;;;;0.22;0.22;;;;;;;;;;5114908;28;20024;-81
2022/12/31 06:20:57;;;;;;;0.20;0.20;;;;;;;;;;5114835;28;20031;-82
2022/12/31 06:23:22;;;;;;;0.90;0.25;;;;;;;;;;5115198;28;20019;-81
2022/12/31 06:25:47;;;;;;;0.47;0.40;;;;;;;;;;5114625;28;20118;-81
2022/12/31 06:28:13;;;;;;;0.30;0.30;;;;;;;;;;5096474;28;20036;-81
2022/12/31 06:30:38;;;;;;;0.20;0.20;;;;;;;;;;5115012;28;20080;-81
2022/12/31 06:33:03;;;;;;;0.25;0.25;;;;;;;;;;5115085;28;20034;-83
2022/12/31 06:35:29;;;;;;;2.42;0.30;;;;;;;;;;5113660;28;20031;-80
2022/12/31 06:37:54;;;;;;;2.70;0.30;;;;;;;;;;5096393;28;20026;-80
2022/12/31 06:40:20;;;;;;;0.70;0.28;;;;;;;;;;5114458;28;20389;-80
2022/12/31 06:42:45;;;;;;;0.35;0.35;;;;;;;;;;5114477;28;20031;-82
2022/12/31 06:45:10;;;;;;;1.52;0.60;;;;;;;;;;5113062;28;20114;-82
2022/12/31 06:47:36;;;;;;;3.58;0.80;;;;;;;;;;5112059;28;20466;-81
2022/12/31 06:50:01;;;;;;;0.47;0.47;;;;;;;;;;5110259;28;20032;-82
2022/12/31 06:52:27;;;;;;;2.70;0.63;;;;;;;;;;5114792;28;20045;-81
2022/12/31 06:54:52;;;;;;;5.10;0.70;;;;;;;;;;5105956;28;20373;-81
2022/12/31 06:57:18;;;;;;;3.03;0.65;;;;;;;;;;5103303;28;20052;-81
2022/12/31 06:59:43;;;;;;;0.95;0.50;;;;;;;;;;5105317;28;20458;-79
2022/12/31 07:02:34;;;;;;;3.67;0.70;;;;;;;;;;5113725;28;20035;-81
2022/12/31 07:05:10;;;;;;;1.70;0.60;;;;;;;;;;5114441;28;20478;-80
2022/12/31 07:07:35;;;;;;;2.72;0.90;;;;;;;;;;5113409;28;20494;-80
2022/12/31 07:10:26;;;;;;;3.13;0.75;;;;;;;;;;5114392;28;20041;-81
2022/12/31 07:13:10;;;;;;;2.33;0.40;;;;;;;;;;5112707;28;20028;-82
2022/12/31 07:15:40;;;;;;;0.90;0.50;;;;;;;;;;5114047;28;20020;-79
2022/12/31 07:18:27;;;;;;;1.05;0.70;;;;;;;;;;5112881;28;20036;-81
2022/12/31 07:20:53;;;;;;;1.02;0.50;;;;;;;;;;5112885;28;20458;-82
2022/12/31 07:23:19;;;;;;;0.40;0.40;;;;;;;;;;5112638;28;20038;-82
2022/12/31 07:25:53;;;;;;;1.65;0.50;;;;;;;;;;5113655;28;20547;-82
2022/12/31 07:28:32;;;;;;;2.40;0.70;;;;;;;;;;5095521;28;20440;-81
2022/12/31 07:31:06;;;;;;;1.40;0.65;;;;;;;;;;5112471;28;20034;-81
2022/12/31 07:33:57;;;;;;;1.02;0.32;;;;;;;;;;5112509;28;20332;-82
2022/12/31 07:36:53;;;;;;;0.50;0.50;;;;;;;;;;5112909;28;20042;-82
2022/12/31 07:39:30;;;;;;;0.60;0.52;;;;;;;;;;5113951;28;20019;-82
2022/12/31 07:42:10;;;;;;;2.03;0.68;;;;;;;;;;5112692;28;20034;-82
2022/12/31 07:44:42;;;;;;;0.50;0.50;;;;;;;;;;5112437;28;20031;-81
2022/12/31 07:47:24;;;;;;;1.08;0.30;;;;;;;;;;5113531;28;20122;-82
2022/12/31 07:49:50;;;;;;;0.30;0.30;;;;;;;;;;5112388;28;20032;-81
2022/12/31 07:52:16;;;;;;;2.50;0.63;;;;;;;;;;5113570;28;20032;-81
2022/12/31 07:54:42;;;;;;;1.55;0.60;;;;;;;;;;5113818;28;20477;-81
2022/12/31 07:57:12;;;;;;;1.23;0.40;;;;;;;;;;5112067;28;20031;-81
2022/12/31 07:59:59;;;;;;;0.63;0.43;;;;;;;;;;5113905;28;20028;-87
2022/12/31 08:02:28;;;;;;;5.72;0.70;;;;;;;;;;5112453;28;20027;-82
2022/12/31 08:04:56;;;;;;;2.50;0.30;;;;;;;;;;5113683;28;20481;-81
2022/12/31 08:07:33;;;;;;;0.47;0.22;;;;;;;;;;5113525;28;20027;-82
2022/12/31 08:10:03;;;;;;;0.77;0.60;;;;;;;;;;5115238;28;20028;-81
2022/12/31 08:12:33;;;;;;;2.85;0.93;;;;;;;;;;5117643;28;20051;-80
2022/12/31 08:14:59;;;;;;;1.77;0.85;;;;;;;;;;5117309;28;20019;-80
2022/12/31 08:17:24;;;;;;;5.50;1.00;;;;;;;;;;5116665;28;20041;-80
2022/12/31 08:19:50;;;;;;;2.28;1.10;;;;;;;;;;5117165;28;20043;-82
2022/12/31 08:22:53;;;;;;;4.43;1.02;;;;;;;;;;5098952;28;20038;-81
2022/12/31 08:25:23;;;;;;;4.32;1.20;;;;;;;;;;5117131;28;20081;-80
2022/12/31 08:28:25;;;;;;;9.65;1.00;;;;;;;;;;5116195;28;20385;-81
2022/12/31 08:31:07;;;;;;;4.88;1.00;;;;;;;;;;5117327;28;20027;-81
2022/12/31 08:33:38;;;;;;;2.83;0.93;;;;;;;;;;5115932;28;20039;-83
2022/12/31 08:36:30;;;;;;;2.35;0.98;;;;;;;;;;5116852;28;20020;-81
2022/12/31 08:39:34;;;;;;;1.25;0.60;;;;;;;;;;5116189;28;20494;-82
2022/12/31 08:42:02;;;;;;;4.60;0.80;;;;;;;;;;5115497;28;20059;-82
2022/12/31 08:44:36;;;;;;;2.03;1.00;;;;;;;;;;5098468;28;20040;-81
2022/12/31 08:47:01;;;;;;;2.50;1.20;;;;;;;;;;5116849;28;20027;-81
2022/12/31 08:49:30;;;;;;;3.92;1.42;;;;;;;;;;5116932;27;20035;-81
2022/12/31 08:51:57;;;;;;;3.28;0.82;;;;;;;;;;5115453;28;20100;-82
2022/12/31 08:54:23;;;;;;;1.17;0.70;;;;;;;;;;5115403;28;20027;-81
2022/12/31 08:56:52;;;;;;;1.02;0.68;;;;;;;;;;5116802;28;20030;-81
2022/12/31 08:59:27;;;;;;;0.88;0.65;;;;;;;;;;5115455;28;20051;-82
2022/12/31 09:02:07;;;;;;;;;;;;;;;;;;5116939;28;20032;-80
2022/12/31 09:04:54;;;;;;;4.63;0.70;;;;;;;;;;5115139;28;19915;-81
2022/12/31 09:07:24;;;;;;;6.32;0.65;;;;;;;;;;5097919;28;20029;-81
2022/12/31 09:10:15;;;;;;;0.50;0.40;;;;;;;;;;5114928;28;20098;-82
2022/12/31 09:13:25;;;;;;;1.40;0.70;;;;;;;;;;5115002;28;20027;-81
2022/12/31 09:15:58;;;;;;;1.08;0.73;;;;;;;;;;5115929;28;20023;-81
2022/12/31 09:18:24;;;;;;;0.97;0.37;;;;;;;;;;5097982;28;20031;-81
2022/12/31 09:20:50;;;;;;;0.70;0.35;;;;;;;;;;5116025;28;20618;-81
2022/12/31 09:23:15;;;;;;;3.58;1.00;;;;;;;;;;5115155;28;20027;-82
2022/12/31 09:25:54;;;;;;;0.63;0.63;;;;;;;;;;5115857;28;20109;-82
2022/12/31 09:28:57;;;;;;;2.08;0.70;;;;;;;;;;5115941;28;20030;-80
2022/12/31 09:31:32;;;;;;;1.10;0.60;;;;;;;;;;5116279;28;20019;-81
2022/12/31 09:34:14;;;;;;;1.13;0.82;;;;;;;;;;5114479;28;20035;-82
2022/12/31 09:36:48;;;;;;;3.22;0.80;;;;;;;;;;5115730;28;20100;-80
2022/12/31 09:39:31;;;;;;;1.08;0.85;;;;;;;;;;5114451;28;20036;-80
2022/12/31 09:42:18;;;;;;;0.85;0.70;;;;;;;;;;5115991;28;20034;-81
2022/12/31 09:45:02;;;;;;;0.93;0.77;;;;;;;;;;5115637;28;20031;-81
2022/12/31 09:47:39;;;;;;;0.82;0.73;;;;;;;;;;5115515;28;20114;-81
2022/12/31 09:50:40;;;;;;;1.00;0.65;;;;;;;;;;5114179;28;20028;-80
2022/12/31 09:53:26;;;;;;;1.88;1.00;;;;;;;;;;5091681;28;20063;-83
2022/12/31 09:55:57;;;;;;;1.65;0.77;;;;;;;;;;5114199;28;20122;-82
2022/12/31 09:58:56;;;;;;;1.77;1.00;;;;;;;;;;5114218;28;20120;-85
2022/12/31 10:01:52;;;;;;;1.45;0.95;;;;;;;;;;5114579;28;20127;-85
2022/12/31 10:04:17;;;;;;;1.88;1.42;;;;;;;;;;5113889;28;20024;-84
2022/12/31 10:06:54;;;;;;;2.08;1.20;;;;;;;;;;5115950;28;20077;-83
2022/12/31 10:09:42;;;;;;;3.17;1.20;;;;;;;;;;5097053;28;20046;-83
2022/12/31 10:12:45;;;;;;;1.83;1.00;;;;;;;;;;5113381;28;20020;-83
2022/12/31 10:15:38;;;;;;;1.27;0.93;;;;;;;;;;5114610;28;20028;-83
2022/12/31 10:18:41;;;;;;;6.38;0.95;;;;;;;;;;5113159;28;20020;-83
2022/12/31 10:21:37;;;;;;;2.33;1.30;;;;;;;;;;5114287;28;20097;-83
2022/12/31 10:24:26;;;;;;;6.88;1.50;;;;;;;;;;5114465;28;20066;-87
2022/12/31 10:27:16;;;;;;;12.52;1.33;;;;;;;;;;5113155;28;20031;-87
2022/12/31 10:29:56;;;;;;;4.13;1.35;;;;;;;;;;5114383;28;20023;-86
2022/12/31 10:32:55;;;;;;;2.08;1.08;;;;;;;;;;5114015;28;20035;-85
2022/12/31 10:35:46;;;;;;;4.53;1.48;;;;;;;;;;5114293;28;20031;-85
2022/12/31 10:38:26;;;;;;;6.97;1.40;;;;;;;;;;5114120;28;20390;-85
2022/12/31 10:41:00;;;;;;;1.33;1.10;;;;;;;;;;5112679;28;20019;-84
2022/12/31 10:43:50;;;;;;;2.40;1.33;;;;;;;;;;5111695;28;20020;-82
2022/12/31 10:46:39;;;;;;;2.95;1.45;;;;;;;;;;5114041;28;20032;-86
2022/12/31 10:50:01;;;;;;;2.70;1.10;;;;;;;;;;5114054;28;20027;-85
2022/12/31 10:52:42;;;;;;;3.78;1.20;;;;;;;;;;5054802;28;20037;-85
2022/12/31 10:55:07;;;;;;;3.45;1.40;;;;;;;;;;5055424;28;20071;-85
2022/12/31 10:58:09;;;;;;;1.70;1.15;;;;;;;;;;5051040;28;20076;-84
2022/12/31 11:01:00;;;;;;;2.17;1.20;;;;;;;;;;5051197;28;20110;-86
2022/12/31 11:03:47;;;;;;;2.22;1.20;;;;;;;;;;5011835;28;20413;-84
2022/12/31 11:06:31;;;;;;;3.65;1.38;;;;;;;;;;5050998;28;20052;-84
2022/12/31 11:09:21;;;;;;;3.30;1.10;;;;;;;;;;5050956;28;20025;-83
2022/12/31 11:11:52;;;;;;;1.13;1.00;;;;;;;;;;5034020;28;20041;-83
2022/12/31 11:14:43;;;;;;;3.25;1.48;;;;;;;;;;5049554;28;20057;-87
2022/12/31 11:17:39;;;;;;;4.80;1.65;;;;;;;;;;5034067;28;20507;-82
2022/12/31 11:20:22;;;;;;;2.17;1.17;;;;;;;;;;5050776;28;20029;-85
2022/12/31 11:23:29;;;;;;;4.72;1.30;;;;;;;;;;5057491;28;20032;-84
2022/12/31 11:26:05;;;;;;;2.45;1.38;;;;;;;;;;5113727;28;20064;-84
2022/12/31 11:29:01;;;;;;;4.50;1.27;;;;;;;;;;5112273;28;20047;-84
2022/12/31 11:31:39;;;;;;;2.40;1.25;;;;;;;;;;5113372;28;20024;-83
2022/12/31 11:34:17;;;;;;;2.42;1.30;;;;;;;;;;5112076;28;20036;-83
2022/12/31 11:37:17;;;;;;;2.00;1.30;;;;;;;;;;5113263;28;20032;-83
2022/12/31 11:39:54;;;;;;;2.38;1.52;;;;;;;;;;5112084;28;20497;-82
2022/12/31 11:42:20;;;;;;;2.47;1.52;;;;;;;;;;5094969;28;20030;-84
2022/12/31 11:45:03;;;;;;;1.40;1.30;;;;;;;;;;5115219;28;20092;-82
2022/12/31 11:47:47;;;;;;;2.30;1.05;;;;;;;;;;5116139;28;20027;-82
2022/12/31 11:50:29;;;;;;;4.97;1.40;;;;;;;;;;5117366;28;20497;-82
2022/12/31 11:53:13;;;;;;;4.05;1.38;;;;;;;;;;5117306;28;20026;-83
2022/12/31 11:55:55;;;;;;;2.35;1.20;;;;;;;;;;5117146;28;20030;-83
2022/12/31 11:58:27;;;;;;;4.32;1.20;;;;;;;;;;5115987;28;20040;-84
2022/12/31 12:00:59;;;;;;;3.33;1.55;;;;;;;;;;5116282;28;20362;-81
2022/12/31 12:03:25;;;;;;;1.63;1.23;;;;;;;;;;5114290;28;20552;-84
2022/12/31 12:05:51;;;;;;;2.28;1.30;;;;;;;;;;5115575;28;20032;-83
2022/12/31 12:08:17;;;;;;;3.55;1.60;;;;;;;;;;5116993;28;20450;-83
2022/12/31 12:11:04;;;;;;;2.55;1.45;;;;;;;;;;5115499;28;20074;-84
2022/12/31 12:13:30;;;;;;;1.88;1.30;;;;;;;;;;5115705;28;20019;-83
2022/12/31 12:16:00;;;;;;;1.95;1.20;;;;;;;;;;5116742;28;20543;-83
2022/12/31 12:18:34;;;;;;;2.88;1.52;;;;;;;;;;5116255;28;20085;-83
2022/12/31 12:21:10;;;;;;;4.00;1.50;;;;;;;;;;5101565;28;20027;-84
2022/12/31 12:23:37;;;;;;;5.50;1.50;;;;;;;;;;5098484;28;20023;-84
2022/12/31 12:26:03;;;;;;;4.45;1.40;;;;;;;;;;5115357;28;20028;-83
2022/12/31 12:28:39;;;;;;;2.13;1.73;;;;;;;;;;5116596;27;20363;-84
2022/12/31 12:31:04;;;;;;;3.63;1.38;;;;;;;;;;5115257;28;20482;-82
2022/12/31 12:33:40;;;;;;;4.38;1.88;;;;;;;;;;5115027;28;20088;-85
2022/12/31 12:36:12;;;;;;;4.88;1.45;;;;;;;;;;5116364;27;20505;-86
2022/12/31 12:38:37;;;;;;;8.95;1.90;;;;;;;;;;5098429;28;20027;-87
2022/12/31 12:41:05;;;;;;;9.57;1.75;;;;;;;;;;5115283;28;20106;-83
2022/12/31 12:43:33;;;;;;;4.65;1.60;;;;;;;;;;5115032;28;20421;-83
2022/12/31 12:46:25;;;;;;;8.32;1.77;;;;;;;;;;5116102;28;20020;-82
2022/12/31 12:48:54;;;;;;;3.28;1.60;;;;;;;;;;5115004;28;20035;-83
2022/12/31 12:52:01;;;;;;;2.85;1.50;;;;;;;;;;5115077;28;20057;-81
2022/12/31 12:54:54;;;;;;;5.13;1.67;;;;;;;;;;5113511;28;20036;-83
2022/12/31 12:57:23;;;;;;;3.90;1.98;;;;;;;;;;5111178;27;20031;-84
2022/12/31 13:00:08;;;;;;;5.10;1.52;;;;;;;;;;5112431;28;20072;-82
2022/12/31 13:02:59;;;;;;;2.97;1.60;;;;;;;;;;5097503;28;20042;-82
2022/12/31 13:05:40;;;;;;;4.75;2.00;;;;;;;;;;5113801;28;20019;-82
2022/12/31 13:08:23;;;;;;;4.95;2.10;;;;;;;;;;5115793;28;20095;-82
2022/12/31 13:10:58;;;;;;;7.57;2.17;;;;;;;;;;5114623;28;20068;-83
2022/12/31 13:13:45;;;;;;;3.67;1.88;;;;;;;;;;5115771;28;20031;-83
2022/12/31 13:16:21;;;;;;;7.03;1.90;;;;;;;;;;5115693;28;20034;-83
2022/12/31 13:19:01;;;;;;;8.48;2.40;;;;;;;;;;5115740;28;20055;-83
2022/12/31 13:21:44;;;;;;;3.20;2.00;;;;;;;;;;5115703;28;20057;-82
2022/12/31 13:24:31;;;;;;;3.90;2.15;;;;;;;;;;5114146;28;20034;-83
2022/12/31 13:27:27;;;;;;;4.13;2.13;;;;;;;;;;5114236;28;20111;-83
2022/12/31 13:29:55;;;;;;;3.97;2.10;;;;;;;;;;5115545;28;20019;-84
2022/12/31 13:32:24;;;;;;;5.38;2.50;;;;;;;;;;5112500;28;20040;-83
2022/12/31 13:34:54;;;;;;;3.70;2.30;;;;;;;;;;5104247;28;20020;-84
2022/12/31 13:37:25;;;;;;;5.07;2.58;;;;;;;;;;5106738;28;20066;-84
2022/12/31 13:39:58;;;;;;;3.78;1.92;;;;;;;;;;5105759;28;20016;-85
2022/12/31 13:42:30;;;;;;;4.18;2.28;;;;;;;;;;5103376;28;20107;-85
2022/12/31 13:45:00;;;;;;;2.88;1.98;;;;;;;;;;5102115;28;20045;-84
2022/12/31 13:47:25;;;;;;;6.00;1.83;;;;;;;;;;5103383;28;20037;-84
2022/12/31 13:50:25;;;;;;;3.97;2.05;;;;;;;;;;5106060;28;20091;-85
2022/12/31 13:52:55;;;;;;;5.63;2.15;;;;;;;;;;5088970;28;20050;-84
2022/12/31 13:55:25;;;;;;;5.38;1.95;;;;;;;;;;5103256;27;20027;-85
2022/12/31 13:57:53;;;;;;;2.72;1.92;;;;;;;;;;5102540;28;20047;-84
2022/12/31 14:00:43;;;;;;;3.20;1.95;;;;;;;;;;5104133;28;20031;-85
2022/12/31 14:03:18;;;;;;;4.22;1.90;;;;;;;;;;5096548;28;20052;-84
2022/12/31 14:05:57;;;;;;;5.03;2.42;;;;;;;;;;5094576;28;20032;-84
2022/12/31 14:08:23;;;;;;;3.65;2.00;;;;;;;;;;5092255;28;20099;-86
2022/12/31 14:10:51;;;;;;;4.10;2.38;;;;;;;;;;5113064;28;20493;-86
2022/12/31 14:13:54;;;;;;;3.05;1.92;;;;;;;;;;5115381;28;20062;-87
2022/12/31 14:16:37;;;;;;;5.30;2.40;;;;;;;;;;5114978;28;20019;-91
2022/12/31 14:19:15;;;;;;;2.88;2.25;;;;;;;;;;5114799;27;20027;-86
2022/12/31 14:21:52;;;;;;;4.40;2.28;;;;;;;;;;5115788;28;20023;-84
2022/12/31 14:24:43;;;;;;;4.50;2.60;;;;;;;;;;5116405;28;20377;-87
2022/12/31 14:27:17;;;;;;;4.60;2.10;;;;;;;;;;5113908;28;20386;-84
2022/12/31 14:29:44;;;;;;;;;;;;;;;;;;5113509;28;20029;-83
2022/12/31 14:32:19;;;;;;;4.05;1.95;;;;;;;;;;5114586;28;19915;-84
2022/12/31 14:35:06;;;;;;;3.78;2.10;;;;;;;;;;5114551;28;20020;-83
2022/12/31 14:37:44;;;;;;;3.38;1.98;;;;;;;;;;5113331;28;20098;-90
2022/12/31 14:40:19;;;;;;;4.65;2.10;;;;;;;;;;5113122;28;20046;-87
2022/12/31 14:43:14;;;;;;;3.03;1.88;;;;;;;;;;5113006;28;20061;-87
2022/12/31 14:46:29;;;;;;;3.80;2.20;;;;;;;;;;5114380;28;20093;-87
2022/12/31 14:49:06;;;;;;;;;;;;;;;;;;5103107;28;20039;-86
2022/12/31 14:51:34;;;;;;;3.13;1.80;;;;;;;;;;5115205;28;19950;-86
2022/12/31 14:54:00;;;;;;;10.35;2.60;;;;;;;;;;5115067;28;20077;-83
2022/12/31 14:56:27;;;;;;;3.47;2.15;;;;;;;;;;5114848;28;20031;-86
2022/12/31 14:58:56;;;;;;;3.83;2.67;;;;;;;;;;5112592;28;20437;-86
2022/12/31 15:01:24;;;;;;;3.17;2.20;;;;;;;;;;5113445;28;20497;-89
2022/12/31 15:03:51;;;;;;;4.20;2.05;;;;;;;;;;5102575;28;20087;-84
2022/12/31 15:06:22;;;;;;;4.35;2.45;;;;;;;;;;5103886;28;20032;-83
2022/12/31 15:09:06;;;;;;;3.53;2.25;;;;;;;;;;5106331;28;20042;-86
2022/12/31 15:11:32;;;;;;;;;;;;;;;;;;5104917;28;20027;-83
2022/12/31 15:14:16;;;;;;;3.40;2.40;;;;;;;;;;5093258;28;19915;-87
2022/12/31 15:16:44;;;;;;;;;;;;;;;;;;5093701;28;20798;-84
2022/12/31 15:19:18;;;;;;;3.63;2.67;;;;;;;;;;5111633;28;19998;-88
2022/12/31 15:22:18;;;;;;;6.22;2.38;;;;;;;;;;5112568;28;20027;-87
2022/12/31 15:24:44;;;;;;;4.85;2.40;;;;;;;;;;5081428;28;20032;-85
2022/12/31 15:27:32;;;;;;;4.90;2.50;;;;;;;;;;5114356;28;20106;-86
2022/12/31 15:30:00;;;;;;;7.32;3.20;;;;;;;;;;5112844;28;20492;-86
2022/12/31 15:32:39;;;;;;;5.43;2.70;;;;;;;;;;5113052;28;20031;-86